Kezdőlap
METAR-TAF:

METAR-TAF

Repülőterek :

Tokió Narita, Japán

földrajzi szélesség: 35-46N, földrajzi hosszúság: 140-23E, magasság: 41 m

Jelenlegi meteorológiai megfigyelések

A jelentés 28 perccel ezelõtt készült, 16:30 UTC
Északi szél 11 kt
Hőmérséklet 13°C
Páratartalom 88%
Légköri nyomás 1000 hPa
Látótávolság 10 km, vagy több

METAR: RJAA 181630Z AUTO 35011KT 9999 NSC 13/11 Q1000 NOSIG RMK A2954

Idő: 01:58 (16:58 UTC)

Előrejelzés

A jelentés 5 órával és 53 perccel ezelõtt készült, 11:05 UTC
Az előrejelzés 18-én 12 óra UTC és 19-én 18 óra UTC között érvényes
Észak-északnyugati szél 8 kt
Látótávolság: 6000 m
Kevés felhő 2000 lábon
Szakadozott felhőzet 4000 lábon
enyhe esõ
18-én 22 óra UTC és 19-én 03 óra UTC között ideiglenes
Északnyugati szél 16 kt széllökések: 28 kt

TAF: RJAA 181105Z 1812/1918 34008KT 6000 -RA FEW020 BKN040 TEMPO 1822/1903 31016G28KT

Meteorológiai megfigyelések és előrejelzések több, mint 4000 repülőtéren (METAR és TAF jelentéseket).

A térképen piros és sárga pontok jelzik az elérhető meteorológiai állomásokat.

Mozgassa az egeret a pont fölött, hogy megjelenjen az állomás neve.

Azután kattintson az időjárási megfigyelések és előrejelzések megtekintéséhez.

A térkép megváltoztatása: kattintson a fekete keresztel jelölt zöld gombra ráközelítéshez, a vonallal jelölt zöld gombra távolításhoz, vagy a zöld nyilakra a szomszédos térképek eléréséhez.


METAR-TAF: